Latest Weather Observations for Point Wilson

IDV60901

Issued at 2:01 pm EDT Saturday 20 December 2014 (issued every 10 minutes, with the page automatically refreshed every 10 minutes)

About weather observations | Map of Melbourne area stations | Latest observations for Melbourne area | Other Formats
Station Details ID: 087166 Name: POINT WILSON Lat: -38.10 Lon: 144.54 Height: 18.0 m
Data from the previous 72 hours. | See also: Recent months at Point Wilson
Date/Time
EDT
Tmp

°C
App
Tmp
°C
Dew
Point
°C
Rel
Hum
%
Delta-T

°C
Wind Press
QNH
hPa
Press
MSL
hPa
Rain
since
9 am
mm
Dir
 
Spd
km/h
Gust
km/h
Spd
kts
Gust
kts
20/02:00pm - - - - - ESE 17 22 9 12 - - -
20/01:30pm - - - - - ESE 13 17 7 9 - - -
20/01:00pm - - - - - SE 9 13 5 7 - - -
20/12:30pm - - - - - CALM 0 0 0 0 - - -
20/12:00pm - - - - - W 7 11 4 6 - - -
20/11:30am - - - - - W 11 17 6 9 - - -
20/11:00am - - - - - W 17 22 9 12 - - -
20/10:30am - - - - - WSW 17 24 9 13 - - -
20/10:00am - - - - - WSW 19 24 10 13 - - -
20/09:30am - - - - - WSW 17 24 9 13 - - -
20/09:00am - - - - - WSW 17 20 9 11 - - -
20/08:30am - - - - - WSW 22 24 12 13 - - -
20/08:00am - - - - - W 19 22 10 12 - - -
20/07:30am - - - - - W 17 20 9 11 - - -
20/07:00am - - - - - W 17 20 9 11 - - -
20/06:30am - - - - - W 17 20 9 11 - - -
20/06:00am - - - - - W 15 19 8 10 - - -
20/05:30am - - - - - WNW 15 19 8 10 - - -
20/05:00am - - - - - WNW 15 17 8 9 - - -
20/04:30am - - - - - WNW 19 20 10 11 - - -
20/04:00am - - - - - W 15 17 8 9 - - -
20/03:30am - - - - - WNW 17 20 9 11 - - -
20/03:00am - - - - - WNW 15 19 8 10 - - -
20/02:30am - - - - - WNW 19 20 10 11 - - -
20/02:00am - - - - - WNW 17 22 9 12 - - -
20/01:30am - - - - - WSW 22 28 12 15 - - -
20/01:00am - - - - - WSW 22 28 12 15 - - -
20/12:30am - - - - - WSW 19 24 10 13 - - -
20/12:00am - - - - - WSW 19 26 10 14 - - -
 
Date/Time
EDT
Tmp

°C
App
Tmp
°C
Dew
Point
°C
Rel
Hum
%
Delta-T

°C
Wind Press
QNH
hPa
Press
MSL
hPa
Rain
since
9 am
mm
Dir
 
Spd
km/h
Gust
km/h
Spd
kts
Gust
kts
19/11:30pm - - - - - WSW 19 26 10 14 - - -
19/11:00pm - - - - - SW 17 22 9 12 - - -
19/10:30pm - - - - - SW 15 20 8 11 - - -
19/10:00pm - - - - - SSW 20 24 11 13 - - -
19/09:30pm - - - - - S 20 26 11 14 - - -
19/09:00pm - - - - - S 28 33 15 18 - - -
19/08:30pm - - - - - SSW 26 32 14 17 - - -
19/08:00pm - - - - - S 26 30 14 16 - - -
19/07:30pm - - - - - S 30 35 16 19 - - -
19/07:00pm - - - - - S 28 32 15 17 - - -
19/06:30pm - - - - - S 26 32 14 17 - - -
19/06:00pm - - - - - S 26 30 14 16 - - -
19/05:30pm - - - - - S 26 37 14 20 - - -
19/05:00pm - - - - - S 26 32 14 17 - - -
19/04:30pm - - - - - S 24 32 13 17 - - -
19/04:00pm - - - - - S 28 32 15 17 - - -
19/03:30pm - - - - - S 20 28 11 15 - - -
19/03:00pm - - - - - S 22 24 12 13 - - -
19/02:30pm - - - - - S 19 26 10 14 - - -
19/02:00pm - - - - - SSW 19 24 10 13 - - -
19/01:30pm - - - - - S 15 26 8 14 - - -
19/01:00pm - - - - - S 17 22 9 12 - - -
19/12:30pm - - - - - SSW 26 32 14 17 - - -
19/12:00pm - - - - - SW 22 30 12 16 - - -
19/11:30am - - - - - SW 19 24 10 13 - - -
19/11:00am - - - - - SW 20 26 11 14 - - -
19/10:30am - - - - - SW 24 30 13 16 - - -
19/10:00am - - - - - WSW 26 32 14 17 - - -
19/09:30am - - - - - WSW 26 35 14 19 - - -
19/09:00am - - - - - WSW 22 28 12 15 - - -
19/08:30am - - - - - W 22 28 12 15 - - -
19/08:00am - - - - - W 24 32 13 17 - - -
19/07:30am - - - - - W 28 33 15 18 - - -
19/07:00am - - - - - W 30 35 16 19 - - -
19/06:30am - - - - - W 32 39 17 21 - - -
19/06:00am - - - - - W 28 33 15 18 - - -
19/05:30am - - - - - W 30 37 16 20 - - -
19/05:00am - - - - - W 32 37 17 20 - - -
19/04:30am - - - - - W 33 37 18 20 - - -
19/04:00am - - - - - W 32 37 17 20 - - -
19/03:30am - - - - - W 32 37 17 20 - - -
19/03:00am - - - - - W 28 35 15 19 - - -
19/02:30am - - - - - W 28 32 15 17 - - -
19/02:00am - - - - - W 26 35 14 19 - - -
19/01:30am - - - - - W 28 33 15 18 - - -
19/01:00am - - - - - WSW 28 35 15 19 - - -
19/12:30am - - - - - W 26 32 14 17 - - -
19/12:00am - - - - - W 26 33 14 18 - - -
 
Date/Time
EDT
Tmp

°C
App
Tmp
°C
Dew
Point
°C
Rel
Hum
%
Delta-T

°C
Wind Press
QNH
hPa
Press
MSL
hPa
Rain
since
9 am
mm
Dir
 
Spd
km/h
Gust
km/h
Spd
kts
Gust
kts
18/11:30pm - - - - - WSW 26 32 14 17 - - -
18/11:00pm - - - - - WSW 28 33 15 18 - - -
18/10:30pm - - - - - WSW 28 33 15 18 - - -
18/10:00pm - - - - - WSW 26 30 14 16 - - -
18/09:30pm - - - - - WSW 30 37 16 20 - - -
18/09:00pm - - - - - SW 30 35 16 19 - - -
18/08:30pm - - - - - SW 35 43 19 23 - - -
18/08:00pm - - - - - SW 32 39 17 21 - - -
18/07:54pm - - - - - SW 30 39 16 21 - - -
18/07:30pm - - - - - SSW 15 19 8 10 - - -
18/07:00pm - - - - - S 19 24 10 13 - - -
18/06:30pm - - - - - W 26 32 14 17 - - -
18/06:00pm - - - - - WSW 32 37 17 20 - - -
18/05:30pm - - - - - W 22 26 12 14 - - -
18/05:00pm - - - - - W 30 35 16 19 - - -
18/04:30pm - - - - - W 32 39 17 21 - - -
18/04:00pm - - - - - W 35 46 19 25 - - -
18/03:30pm - - - - - WSW 46 59 25 32 - - -
18/03:00pm - - - - - WSW 59 70 32 38 - - -
18/02:45pm - - - - - WSW 61 87 33 47 - - -
18/02:42pm - - - - - W 41 87 22 47 - - -
18/02:30pm - - - - - W 37 44 20 24 - - -
18/02:00pm - - - - - WSW 32 39 17 21 - - -
18/01:30pm - - - - - WSW 24 28 13 15 - - -
18/01:00pm - - - - - W 28 35 15 19 - - -
18/12:30pm - - - - - W 24 33 13 18 - - -
18/12:00pm - - - - - W 30 37 16 20 - - -
18/11:30am - - - - - W 32 43 17 23 - - -
18/11:00am - - - - - W 30 37 16 20 - - -
18/10:40am - - - - - W 39 44 21 24 - - -
18/10:30am - - - - - WSW 28 35 15 19 - - -
18/10:00am - - - - - WSW 30 37 16 20 - - -
18/09:30am - - - - - WSW 26 33 14 18 - - -
18/09:00am - - - - - W 22 30 12 16 - - -
18/08:30am - - - - - N 13 17 7 9 - - -
18/08:00am - - - - - NNW 15 19 8 10 - - -
18/07:30am - - - - - WNW 15 17 8 9 - - -
18/07:00am - - - - - WNW 19 20 10 11 - - -
18/06:30am - - - - - NW 17 17 9 9 - - -
18/06:00am - - - - - WNW 17 19 9 10 - - -
18/05:30am - - - - - W 19 20 10 11 - - -
18/05:00am - - - - - S 11 15 6 8 - - -
18/04:30am - - - - - S 13 15 7 8 - - -
18/04:00am - - - - - S 13 17 7 9 - - -
18/03:30am - - - - - SSE 11 15 6 8 - - -
18/03:00am - - - - - SE 11 15 6 8 - - -
18/02:30am - - - - - SSE 11 15 6 8 - - -
18/02:00am - - - - - SE 11 13 6 7 - - -
18/01:30am - - - - - ESE 15 19 8 10 - - -
18/01:00am - - - - - ESE 17 20 9 11 - - -
18/12:30am - - - - - ESE 17 20 9 11 - - -
18/12:00am - - - - - SE 17 20 9 11 - - -
 
Date/Time
EDT
Tmp

°C
App
Tmp
°C
Dew
Point
°C
Rel
Hum
%
Delta-T

°C
Wind Press
QNH
hPa
Press
MSL
hPa
Rain
since
9 am
mm
Dir
 
Spd
km/h
Gust
km/h
Spd
kts
Gust
kts
17/11:30pm - - - - - SE 19 22 10 12 - - -
17/11:00pm - - - - - ESE 17 20 9 11 - - -
17/10:30pm - - - - - SSE 19 24 10 13 - - -
17/10:00pm - - - - - SSE 20 26 11 14 - - -
17/09:30pm - - - - - SSE 19 24 10 13 - - -
17/09:00pm - - - - - SE 20 26 11 14 - - -
17/08:30pm - - - - - SSE 26 32 14 17 - - -
17/08:00pm - - - - - SSE 30 35 16 19 - - -
17/07:30pm - - - - - SSE 30 33 16 18 - - -
17/07:00pm - - - - - S 28 32 15 17 - - -
17/06:30pm - - - - - S 24 30 13 16 - - -
17/06:00pm - - - - - S 24 30 13 16 - - -
17/05:30pm - - - - - SSE 22 28 12 15 - - -
17/05:00pm - - - - - S 22 28 12 15 - - -
17/04:30pm - - - - - SSE 24 28 13 15 - - -
17/04:00pm - - - - - SSE 26 30 14 16 - - -
17/03:30pm - - - - - ESE 22 28 12 15 - - -
17/03:00pm - - - - - ESE 20 28 11 15 - - -
17/02:30pm - - - - - ESE 24 30 13 16 - - -

Latest Capital City Observations: Canberra | Sydney | Melbourne | Brisbane | Adelaide | Perth | Hobart | Darwin

Other Formats:

Comma delimited format used in spreadsheet applications
http://www.bom.gov.au/fwo/IDV60901/IDV60901.94847.axf

JavaScript Object Notation format (JSON) in row-major order
http://www.bom.gov.au/fwo/IDV60901/IDV60901.94847.json